Time;durP1;ratioP1;P1;durP2;ratioP2;P2;SDS_P1;SDS_P2;PMS_P1;PMS_P2;Temp;Humidity;BMP_temperature;BMP_pressure;BME280_temperature;BME280_humidity;BME280_pressure;Samples;Min_cycle;Max_cycle;Signal;HPM_P1;HPM_P2
2024/03/25 00:01:42;;;;;;;4.00;2.70;;;;;;;10.77;53.08;98022.53;6832987;29;20206;-82
2024/03/25 00:05:05;;;;;;;3.47;3.07;;;;;;;10.44;53.14;98022.91;6832900;29;20594;-82
2024/03/25 00:08:29;;;;;;;3.50;2.53;;;;;;;11.06;51.08;98029.88;6831559;28;20224;-81
2024/03/25 00:11:54;;;;;;;3.73;3.10;;;;;;;10.62;52.85;98028.31;6832690;28;20305;-82
2024/03/25 00:15:15;;;;;;;4.57;2.97;;;;;;;10.78;52.64;98024.19;6832831;29;20205;-81
2024/03/25 00:18:36;;;;;;;3.67;2.70;;;;;;;10.37;52.81;98005.97;6833450;29;20285;-82
2024/03/25 00:22:04;;;;;;;3.53;2.70;;;;;;;10.90;51.76;98025.91;6859881;28;20250;-82
2024/03/25 00:25:26;;;;;;;3.43;2.83;;;;;;;10.55;52.95;98027.56;6895119;28;20211;-82
2024/03/25 00:28:46;;;;;;;4.50;3.37;;;;;;;11.00;51.75;98030.75;6886106;28;20255;-83
2024/03/25 00:32:08;;;;;;;4.67;3.00;;;;;;;10.92;51.87;98017.59;6894604;28;20311;-82
2024/03/25 00:35:30;;;;;;;3.37;3.00;;;;;;;10.83;51.96;98008.16;6895981;28;20284;-82
2024/03/25 00:38:52;;;;;;;5.57;2.80;;;;;;;11.11;52.08;98001.13;6895075;28;20594;-82
2024/03/25 00:42:13;;;;;;;3.40;2.57;;;;;;;11.34;51.19;98016.63;6894654;28;20243;-82
2024/03/25 00:45:34;;;;;;;4.13;3.00;;;;;;;11.09;51.69;97997.84;6894150;28;20236;-82
2024/03/25 00:48:56;;;;;;;3.67;2.83;;;;;;;11.08;51.36;98020.50;6893030;28;20656;-81
2024/03/25 00:52:17;;;;;;;3.33;3.03;;;;;;;11.23;51.57;98022.78;6894288;28;20323;-82
2024/03/25 00:55:39;;;;;;;4.03;3.00;;;;;;;11.29;51.12;98013.78;6892052;28;20254;-81
2024/03/25 00:59:03;;;;;;;8.13;3.20;;;;;;;10.85;52.34;98006.88;6893640;28;20267;-82
2024/03/25 01:02:27;;;;;;;3.47;3.17;;;;;;;11.30;51.37;98012.72;6892849;28;20664;-81
2024/03/25 01:05:47;;;;;;;3.10;2.83;;;;;;;11.23;51.27;98006.59;6893217;28;20240;-83
2024/03/25 01:09:09;;;;;;;3.80;2.90;;;;;;;10.93;51.35;98006.56;6891334;28;20235;-82
2024/03/25 01:12:32;;;;;;;5.67;3.13;;;;;;;10.48;52.56;98016.03;6866751;28;20232;-81
2024/03/25 01:15:53;;;;;;;4.80;3.30;;;;;;;10.69;52.28;98012.88;6866521;28;20212;-81
2024/03/25 01:19:14;;;;;;;7.33;3.53;;;;;;;10.31;53.14;97997.97;6866524;28;20253;-82
2024/03/25 01:22:35;;;;;;;4.90;3.33;;;;;;;10.93;51.07;97994.97;6872375;28;20227;-81
2024/03/25 01:25:56;;;;;;;9.50;3.70;;;;;;;10.64;52.09;97996.53;6891736;28;20211;-81
2024/03/25 01:29:19;;;;;;;4.60;3.23;;;;;;;10.51;51.86;97983.22;6892629;28;20307;-82
2024/03/25 01:32:40;;;;;;;5.30;4.10;;;;;;;10.70;51.73;97992.13;6889527;28;20232;-82
2024/03/25 01:36:02;;;;;;;10.53;3.73;;;;;;;10.54;51.53;98003.50;6891554;28;20235;-83
2024/03/25 01:39:24;;;;;;;4.80;2.90;;;;;;;11.06;50.63;97975.91;6892778;28;20835;-82
2024/03/25 01:42:55;;;;;;;4.97;3.40;;;;;;;10.27;51.96;97956.38;6892835;28;20205;-82
2024/03/25 01:46:18;;;;;;;4.07;3.07;;;;;;;10.80;51.59;97968.19;6892167;28;20566;-83
2024/03/25 01:49:39;;;;;;;7.00;3.40;;;;;;;10.99;50.72;97964.41;6892897;28;20358;-83
2024/03/25 01:53:01;;;;;;;4.37;3.27;;;;;;;10.58;51.93;97985.84;6893317;28;20225;-82
2024/03/25 01:56:23;;;;;;;3.97;3.33;;;;;;;11.03;51.12;98001.47;6891933;28;20336;-82
2024/03/25 01:59:45;;;;;;;4.00;3.60;;;;;;;11.03;51.46;98004.16;6892037;28;20224;-83
2024/03/25 02:03:08;;;;;;;4.07;2.97;;;;;;;10.63;51.46;97994.09;6892647;28;20215;-83
2024/03/25 02:06:31;;;;;;;3.70;3.37;;;;;;;10.58;51.49;97986.66;6890501;28;20208;-82
2024/03/25 02:09:52;;;;;;;4.03;3.63;;;;;;;10.33;52.57;97995.88;6891142;28;20208;-83
2024/03/25 02:13:14;;;;;;;5.00;3.90;;;;;;;10.67;52.13;97997.97;6891870;28;20220;-83
2024/03/25 02:16:35;;;;;;;5.10;3.10;;;;;;;10.41;52.68;98001.81;6891704;28;20693;-83
2024/03/25 02:19:58;;;;;;;4.53;3.00;;;;;;;10.43;52.29;97980.84;6893346;28;20224;-82
2024/03/25 02:23:20;;;;;;;4.20;3.30;;;;;;;10.36;52.33;97996.25;6895014;28;20246;-83
2024/03/25 02:26:42;;;;;;;8.43;3.60;;;;;;;10.29;52.36;97991.97;6892076;28;20800;-83
2024/03/25 02:30:08;;;;;;;5.43;3.20;;;;;;;9.92;52.95;97960.63;6891736;28;20805;-83
2024/03/25 02:33:29;;;;;;;6.33;3.50;;;;;;;10.39;52.19;97976.13;6892083;28;20232;-82
2024/03/25 02:36:51;;;;;;;3.97;3.53;;;;;;;10.42;52.08;97968.41;6875087;28;20241;-83
2024/03/25 02:40:12;;;;;;;6.13;3.53;;;;;;;10.33;52.39;97980.53;6865400;28;20236;-83
2024/03/25 02:43:35;;;;;;;4.43;3.70;;;;;;;10.59;51.88;97985.63;6865763;28;20344;-83
2024/03/25 02:46:57;;;;;;;4.07;3.17;;;;;;;10.65;51.27;97962.34;6890841;28;20702;-82
2024/03/25 02:50:18;;;;;;;4.00;3.60;;;;;;;10.32;52.20;97995.03;6892488;28;20236;-82
2024/03/25 02:53:39;;;;;;;5.27;3.17;;;;;;;10.51;52.07;97990.50;6894850;28;20283;-82
2024/03/25 02:57:09;;;;;;;4.27;3.50;;;;;;;10.43;51.77;97969.22;6894661;28;20644;-82
2024/03/25 03:00:38;;;;;;;7.87;3.10;;;;;;;10.65;51.80;97973.13;6895776;28;20215;-82
2024/03/25 03:04:16;;;;;;;4.00;3.23;;;;;;;10.80;51.40;97995.13;6895117;28;20332;-82
2024/03/25 03:07:36;;;;;;;5.67;3.70;;;;;;;10.69;51.89;97990.50;6892977;28;20228;-81
2024/03/25 03:10:58;;;;;;;3.60;3.30;;;;;;;10.62;51.33;97966.31;6891718;28;20307;-82
2024/03/25 03:14:20;;;;;;;3.70;3.30;;;;;;;11.01;50.89;97994.66;6893475;28;20708;-81
2024/03/25 03:17:42;;;;;;;3.53;3.23;;;;;;;10.87;51.24;97983.19;6894593;28;20228;-81
2024/03/25 03:21:07;;;;;;;7.53;3.67;;;;;;;10.81;51.21;97978.72;6895290;28;20790;-82
2024/03/25 03:24:33;;;;;;;7.87;3.27;;;;;;;10.31;51.08;97928.75;6894916;28;20200;-82
2024/03/25 03:27:54;;;;;;;5.77;3.40;;;;;;;10.31;52.02;97968.31;6890067;28;20322;-82
2024/03/25 03:31:15;;;;;;;6.43;4.27;;;;;;;10.56;51.47;97971.78;6891910;28;20205;-81
2024/03/25 03:34:37;;;;;;;6.00;4.00;;;;;;;10.82;51.48;97971.47;6891782;28;20355;-81
2024/03/25 03:38:04;;;;;;;6.57;4.43;;;;;;;10.78;51.00;97946.00;6891200;28;20224;-82
2024/03/25 03:41:24;;;;;;;5.93;4.57;;;;;;;10.17;52.13;97948.78;6891192;28;20277;-81
2024/03/25 03:44:46;;;;;;;8.97;4.30;;;;;;;10.40;52.35;97956.22;6892077;28;20282;-82
2024/03/25 03:48:08;;;;;;;5.70;3.93;;;;;;;10.50;52.08;97954.63;6892561;28;20252;-82
2024/03/25 03:51:31;;;;;;;6.73;3.93;;;;;;;10.67;51.94;97955.66;6893123;28;20246;-83
2024/03/25 03:54:52;;;;;;;5.70;3.97;;;;;;;11.20;49.93;97963.88;6891959;28;20290;-83
2024/03/25 03:58:13;;;;;;;4.83;3.40;;;;;;;10.98;50.41;97974.34;6892433;28;20220;-83
2024/03/25 04:01:34;;;;;;;6.27;3.80;;;;;;;11.02;50.40;97989.03;6898358;28;20351;-83
2024/03/25 04:04:55;;;;;;;4.50;3.23;;;;;;;11.15;50.21;97990.75;6896454;28;20202;-83
2024/03/25 04:08:18;;;;;;;3.83;3.40;;;;;;;10.92;50.72;97986.03;6895804;28;20228;-82
2024/03/25 04:11:40;;;;;;;12.77;3.70;;;;;;;10.73;52.32;97989.81;6897286;28;20220;-82
2024/03/25 04:15:02;;;;;;;4.33;3.67;;;;;;;10.70;51.18;97966.00;6898285;28;20247;-82
2024/03/25 04:18:23;;;;;;;4.60;4.03;;;;;;;10.56;51.88;97999.56;6921306;28;20200;-82
2024/03/25 04:21:44;;;;;;;6.43;4.10;;;;;;;10.41;53.00;97992.88;6901194;28;20213;-83
2024/03/25 04:25:11;;;;;;;5.20;3.77;;;;;;;10.78;52.00;97976.50;6894498;28;20348;-83
2024/03/25 04:28:32;;;;;;;5.73;3.47;;;;;;;10.60;52.08;97986.44;6892665;28;20236;-83
2024/03/25 04:31:53;;;;;;;4.13;3.40;;;;;;;10.63;52.41;97980.63;6893973;28;20247;-83
2024/03/25 04:35:14;;;;;;;6.53;4.00;;;;;;;10.32;52.98;97986.97;6893331;28;20231;-83
